Terminal Aerodrome Forecast
Issued by NWS

Current Version | Previous Version | Text Only | Print | Product List | Glossary On
Versions: 1 2 3 4 5 6 7 8 9 10 11 12 13 14 15 16 17 18
000
FTUS43 KIND 232300
TAFBMG
TAF
KBMG 232320Z 2400/2424 14006KT P6SM SCT250
     FM240200 14002KT P6SM SCT100 BKN250
     FM240900 14002KT P6SM BKN100
     FM241500 18011KT P6SM SCT040 BKN100
     FM242000 17010KT P6SM BKN040
      AMD LTD TO CLD VIS AND WIND 2401/2413=

USA.gov is the U.S. government's official web portal to all federal, state and local government web resources and services.